createdAt,value
2019-05-26T00:00:35.255Z,6.57
2019-05-26T00:05:42.920Z,6.39
2019-05-26T00:10:50.640Z,7.25
2019-05-26T00:15:59.291Z,7.14
2019-05-26T00:21:07.059Z,7.07
2019-05-26T00:26:14.738Z,6.52
2019-05-26T00:31:22.488Z,6.11
2019-05-26T00:36:31.520Z,6.75
2019-05-26T00:41:40.598Z,7.12
2019-05-26T00:46:48.476Z,7.26
2019-05-26T00:51:56.259Z,7.44
2019-05-26T00:57:05.018Z,7.31
2019-05-26T01:02:12.753Z,7.64
2019-05-26T01:07:21.566Z,8.16
2019-05-26T01:12:29.662Z,8.05
2019-05-26T01:17:37.379Z,7.88
2019-05-26T01:22:45.150Z,8.19
2019-05-26T01:27:53.212Z,8.29
2019-05-26T01:33:01.895Z,9.00
2019-05-26T01:38:23.407Z,8.61
2019-05-26T01:43:16.849Z,8.78
2019-05-26T01:48:24.496Z,8.73
2019-05-26T01:53:32.552Z,9.02
2019-05-26T01:58:40.192Z,8.54
2019-05-26T02:03:47.872Z,8.42
2019-05-26T02:08:58.154Z,8.73
2019-05-26T02:13:55.820Z,8.71
2019-05-26T02:19:03.561Z,9.55
2019-05-26T02:24:11.709Z,9.51
2019-05-26T02:29:19.338Z,9.38
2019-05-26T02:34:26.833Z,9.71
2019-05-26T02:39:34.478Z,9.87
2019-05-26T02:44:42.742Z,8.98
2019-05-26T02:49:52.079Z,9.58
2019-05-26T02:54:59.775Z,9.56
2019-05-26T03:00:07.485Z,9.89
2019-05-26T03:05:15.180Z,10.13
2019-05-26T03:10:22.830Z,10.29
2019-05-26T03:15:30.510Z,9.26
2019-05-26T03:20:38.256Z,10.15
2019-05-26T03:25:46.070Z,9.76
2019-05-26T03:30:53.967Z,9.96
2019-05-26T03:36:01.719Z,10.00
2019-05-26T03:41:09.656Z,10.26
2019-05-26T03:46:17.376Z,9.48
2019-05-26T03:51:25.035Z,9.17
2019-05-26T03:56:32.846Z,8.68
2019-05-26T04:01:40.473Z,8.76
2019-05-26T04:06:48.270Z,8.79
2019-05-26T04:11:54.333Z,9.00
2019-05-26T04:17:01.966Z,8.73
2019-05-26T04:22:09.609Z,8.19
2019-05-26T04:27:17.639Z,8.27
2019-05-26T04:32:25.374Z,7.94
2019-05-26T04:37:33.027Z,7.94
2019-05-26T04:42:40.682Z,8.56
2019-05-26T04:47:48.354Z,7.96
2019-05-26T04:53:06.166Z,7.64
2019-05-26T04:58:03.220Z,8.01
2019-05-26T05:03:11.103Z,8.07
2019-05-26T05:08:19.001Z,8.06
2019-05-26T05:13:26.800Z,7.97
2019-05-26T05:18:34.458Z,9.07
2019-05-26T05:23:42.081Z,9.54
2019-05-26T05:28:49.737Z,10.14
2019-05-26T05:33:57.521Z,11.35
2019-05-26T05:39:05.291Z,11.33
2019-05-26T05:44:13.076Z,12.24
2019-05-26T05:49:20.727Z,12.27
2019-05-26T05:54:28.437Z,12.26
2019-05-26T05:59:36.205Z,12.81
2019-05-26T06:04:43.970Z,13.35
2019-05-26T06:09:51.624Z,12.77
2019-05-26T06:14:59.652Z,13.92
2019-05-26T06:20:07.315Z,14.50
2019-05-26T06:25:14.975Z,14.03
2019-05-26T06:30:22.701Z,14.60
2019-05-26T06:35:32.620Z,14.68
2019-05-26T06:40:37.793Z,13.54
2019-05-26T06:45:45.624Z,14.09
2019-05-26T06:50:53.494Z,13.96
2019-05-26T06:56:01.188Z,13.61
2019-05-26T07:01:09.018Z,13.21
2019-05-26T07:06:16.863Z,13.22
2019-05-26T07:11:24.797Z,12.19
2019-05-26T07:16:38.133Z,12.63
2019-05-26T07:21:39.614Z,11.97
2019-05-26T07:26:47.237Z,12.33
2019-05-26T07:31:54.924Z,12.26
2019-05-26T07:37:02.548Z,12.55
2019-05-26T07:42:11.163Z,12.52
2019-05-26T07:47:17.561Z,12.73
2019-05-26T07:52:25.306Z,12.47
2019-05-26T07:57:32.902Z,12.48
2019-05-26T08:02:40.749Z,13.02
2019-05-26T08:07:48.445Z,12.72
2019-05-26T08:12:56.305Z,12.67
2019-05-26T08:18:03.930Z,12.53
2019-05-26T08:23:11.757Z,12.69
2019-05-26T08:28:19.402Z,12.06
2019-05-26T08:33:27.143Z,12.87
2019-05-26T08:38:34.979Z,12.81
2019-05-26T08:43:42.761Z,13.38
2019-05-26T08:48:51.502Z,12.90
2019-05-26T08:53:59.271Z,12.30
2019-05-26T08:59:06.968Z,13.19
2019-05-26T09:04:14.648Z,12.57
2019-05-26T09:09:22.317Z,12.77
2019-05-26T09:14:30.052Z,12.76
2019-05-26T09:19:37.768Z,13.00
2019-05-26T09:24:45.393Z,13.22
2019-05-26T09:29:54.046Z,11.97
2019-05-26T09:35:31.431Z,13.68
2019-05-26T09:40:39.017Z,11.31
2019-05-26T09:45:46.718Z,10.54
2019-05-26T09:50:54.440Z,12.14
2019-05-26T09:56:02.241Z,11.69
2019-05-26T10:01:10.322Z,11.61
2019-05-26T10:06:18.251Z,11.05
2019-05-26T10:11:26.338Z,12.14
2019-05-26T10:16:33.929Z,11.56
2019-05-26T10:21:41.649Z,10.99
2019-05-26T10:26:49.404Z,11.61
2019-05-26T10:31:57.102Z,10.25
2019-05-26T10:37:04.865Z,10.52
2019-05-26T10:42:12.533Z,11.22
2019-05-26T10:47:20.266Z,10.48
2019-05-26T10:52:27.896Z,10.10
2019-05-26T10:57:36.044Z,10.48
2019-05-26T11:02:44.828Z,10.88
2019-05-26T11:07:52.594Z,10.06
2019-05-26T11:13:00.212Z,9.27
2019-05-26T11:18:07.911Z,9.80
2019-05-26T11:23:16.529Z,9.27
2019-05-26T11:28:24.262Z,9.64
2019-05-26T11:33:31.894Z,9.28
2019-05-26T11:38:39.694Z,8.57
2019-05-26T11:43:47.424Z,7.31
2019-05-26T11:48:55.184Z,7.13
2019-05-26T11:54:02.793Z,7.56
2019-05-26T11:59:10.510Z,8.01
2019-05-26T12:04:18.127Z,6.73
2019-05-26T12:09:25.864Z,6.54
2019-05-26T12:14:35.235Z,6.30
2019-05-26T12:19:40.837Z,7.66
2019-05-26T12:24:48.514Z,6.78
2019-05-26T12:29:56.252Z,6.11
2019-05-26T12:35:03.886Z,6.48
2019-05-26T12:40:11.518Z,5.20
2019-05-26T12:45:19.295Z,5.06
2019-05-26T12:50:26.952Z,5.69
2019-05-26T12:55:34.671Z,5.63
2019-05-26T13:00:48.674Z,5.18
2019-05-26T13:05:50.462Z,5.31
2019-05-26T13:10:58.309Z,5.40
2019-05-26T13:16:06.030Z,5.96
2019-05-26T13:21:13.962Z,5.49
2019-05-26T13:26:21.691Z,6.26
2019-05-26T13:31:29.394Z,5.62
2019-05-26T13:36:37.109Z,5.93
2019-05-26T13:41:44.963Z,5.60
2019-05-26T13:46:52.598Z,5.86
2019-05-26T13:52:00.359Z,5.92
2019-05-26T13:57:08.091Z,7.38
2019-05-26T14:02:15.848Z,5.51
2019-05-26T14:07:23.641Z,5.29
2019-05-26T14:12:31.382Z,4.25
2019-05-26T14:17:39.035Z,3.81
2019-05-26T14:22:46.804Z,3.42
2019-05-26T14:27:54.466Z,4.66
2019-05-26T14:33:02.289Z,4.06
2019-05-26T14:38:09.930Z,3.69
2019-05-26T14:43:17.758Z,4.69
2019-05-26T14:48:25.678Z,4.08
2019-05-26T14:53:34.406Z,4.96
2019-05-26T14:58:42.041Z,5.28
2019-05-26T15:03:49.806Z,5.12
2019-05-26T15:08:57.581Z,6.38
2019-05-26T15:14:05.360Z,5.94
2019-05-26T15:19:13.165Z,5.96
2019-05-26T15:24:20.921Z,6.99
2019-05-26T15:29:28.645Z,7.17
2019-05-26T15:34:36.606Z,6.56
2019-05-26T15:39:44.293Z,7.37
2019-05-26T15:44:52.114Z,6.06
2019-05-26T15:49:59.899Z,4.14
2019-05-26T15:55:07.676Z,3.43
2019-05-26T16:00:15.366Z,2.54
2019-05-26T16:05:23.208Z,2.23
2019-05-26T16:10:30.860Z,2.39
2019-05-26T16:15:38.571Z,2.61
2019-05-26T16:20:46.632Z,3.09
2019-05-26T16:25:54.884Z,3.12
2019-05-26T16:31:02.559Z,3.51
2019-05-26T16:36:10.306Z,3.78
2019-05-26T16:41:18.003Z,3.24
2019-05-26T16:46:25.829Z,3.67
2019-05-26T16:51:33.513Z,4.37
2019-05-26T16:56:41.458Z,4.61
2019-05-26T17:01:49.042Z,4.40
2019-05-26T17:06:56.971Z,3.27
2019-05-26T17:12:04.565Z,2.51
2019-05-26T17:17:15.065Z,2.63
2019-05-26T17:22:19.678Z,2.27
2019-05-26T17:27:29.933Z,1.89
2019-05-26T17:32:27.592Z,2.04
2019-05-26T17:37:35.378Z,2.19
2019-05-26T17:42:43.097Z,2.94
2019-05-26T17:47:50.739Z,3.95
2019-05-26T17:52:58.462Z,5.06
2019-05-26T17:58:06.314Z,6.02
2019-05-26T18:03:13.991Z,5.38
2019-05-26T18:08:21.694Z,7.01
2019-05-26T18:13:29.577Z,6.74
2019-05-26T18:18:37.577Z,7.10
2019-05-26T18:23:45.338Z,7.07
2019-05-26T18:28:53.086Z,7.32
2019-05-26T18:34:00.677Z,6.72
2019-05-26T18:39:08.409Z,6.18
2019-05-26T18:44:16.052Z,5.83
2019-05-26T18:49:23.906Z,5.19
2019-05-26T18:54:31.710Z,5.44
2019-05-26T18:59:39.445Z,5.67
2019-05-26T19:04:47.098Z,4.97
2019-05-26T19:09:54.945Z,4.72
2019-05-26T19:15:02.699Z,4.39
2019-05-26T19:20:16.053Z,4.94
2019-05-26T19:25:17.922Z,4.55
2019-05-26T19:30:26.511Z,4.77
2019-05-26T19:35:34.246Z,4.69
2019-05-26T19:40:41.966Z,4.52
2019-05-26T19:45:49.616Z,3.97
2019-05-26T19:50:57.356Z,3.51
2019-05-26T19:56:05.178Z,3.61
2019-05-26T20:01:13.026Z,2.44
2019-05-26T20:06:20.811Z,2.64
2019-05-26T20:11:29.030Z,2.48
2019-05-26T20:16:37.842Z,2.83
2019-05-26T20:21:45.696Z,3.05
2019-05-26T20:26:53.721Z,2.67
2019-05-26T20:32:01.465Z,3.11
2019-05-26T20:37:09.159Z,2.49
2019-05-26T20:42:17.102Z,2.44
2019-05-26T20:47:24.920Z,2.51
2019-05-26T20:52:32.836Z,2.56
2019-05-26T20:57:40.620Z,2.54
2019-05-26T21:02:49.409Z,3.23
2019-05-26T21:07:57.137Z,2.86
2019-05-26T21:13:04.833Z,2.86
2019-05-26T21:18:12.520Z,3.15
2019-05-26T21:23:22.686Z,2.89
2019-05-26T21:28:27.696Z,2.97
2019-05-26T21:33:35.770Z,3.22
2019-05-26T21:38:43.650Z,3.43
2019-05-26T21:43:51.469Z,3.50
2019-05-26T21:48:59.532Z,3.57
2019-05-26T21:54:06.898Z,3.84
2019-05-26T21:59:14.688Z,3.90
2019-05-26T22:04:22.498Z,3.94
2019-05-26T22:09:30.106Z,3.99
2019-05-26T22:14:38.915Z,3.81
2019-05-26T22:19:46.701Z,3.91
2019-05-26T22:24:54.355Z,3.73
2019-05-26T22:30:02.203Z,3.67
2019-05-26T22:35:09.889Z,4.08
2019-05-26T22:40:18.585Z,3.95
2019-05-26T22:45:26.198Z,3.81
2019-05-26T22:50:33.930Z,3.82
2019-05-26T22:55:41.649Z,3.38
2019-05-26T23:00:49.506Z,3.32
2019-05-26T23:05:57.143Z,3.24
2019-05-26T23:11:04.864Z,2.97
2019-05-26T23:16:12.586Z,2.78
2019-05-26T23:21:20.438Z,2.86
2019-05-26T23:26:28.201Z,2.63
2019-05-26T23:31:35.957Z,2.55
2019-05-26T23:36:43.607Z,2.47
2019-05-26T23:41:51.388Z,2.44
2019-05-26T23:46:59.129Z,2.49
2019-05-26T23:52:08.023Z,2.53
2019-05-26T23:57:15.628Z,2.42
